sensor_id;sensor_type;location;lat;lon;timestamp;P1;durP1;ratioP1;P2;durP2;ratioP2
37647;SDS011;23490;53.656;10.076;2024-03-23T00:54:28;17.00;;;2.83;;
37647;SDS011;23490;53.656;10.076;2024-03-23T00:56:53;15.18;;;3.53;;
37647;SDS011;23490;53.656;10.076;2024-03-23T00:59:18;20.77;;;4.00;;
37647;SDS011;23490;53.656;10.076;2024-03-23T01:01:43;16.45;;;3.28;;
37647;SDS011;23490;53.656;10.076;2024-03-23T01:04:09;14.30;;;3.35;;
37647;SDS011;23490;53.656;10.076;2024-03-23T01:06:34;17.48;;;3.45;;
37647;SDS011;23490;53.656;10.076;2024-03-23T01:08:59;18.00;;;4.03;;
37647;SDS011;23490;53.656;10.076;2024-03-23T01:11:24;18.23;;;3.70;;
37647;SDS011;23490;53.656;10.076;2024-03-23T01:13:50;23.60;;;4.95;;
37647;SDS011;23490;53.656;10.076;2024-03-23T01:16:15;18.88;;;4.18;;
37647;SDS011;23490;53.656;10.076;2024-03-23T01:18:40;14.85;;;2.67;;
37647;SDS011;23490;53.656;10.076;2024-03-23T01:21:05;19.05;;;4.20;;
37647;SDS011;23490;53.656;10.076;2024-03-23T01:23:30;15.93;;;4.30;;
37647;SDS011;23490;53.656;10.076;2024-03-23T01:25:55;17.08;;;3.67;;
37647;SDS011;23490;53.656;10.076;2024-03-23T01:28:21;20.30;;;3.80;;
37647;SDS011;23490;53.656;10.076;2024-03-23T01:30:46;12.00;;;2.78;;
37647;SDS011;23490;53.656;10.076;2024-03-23T01:33:12;14.98;;;4.30;;
37647;SDS011;23490;53.656;10.076;2024-03-23T01:35:37;19.52;;;3.72;;
37647;SDS011;23490;53.656;10.076;2024-03-23T01:38:02;10.85;;;3.15;;
37647;SDS011;23490;53.656;10.076;2024-03-23T01:40:27;15.75;;;3.65;;
37647;SDS011;23490;53.656;10.076;2024-03-23T01:42:56;17.77;;;2.90;;
37647;SDS011;23490;53.656;10.076;2024-03-23T01:45:22;15.90;;;3.45;;
37647;SDS011;23490;53.656;10.076;2024-03-23T01:47:48;17.85;;;3.80;;
37647;SDS011;23490;53.656;10.076;2024-03-23T01:50:13;18.45;;;3.33;;
37647;SDS011;23490;53.656;10.076;2024-03-23T01:52:39;14.25;;;3.15;;
37647;SDS011;23490;53.656;10.076;2024-03-23T01:55:04;13.52;;;3.15;;
37647;SDS011;23490;53.656;10.076;2024-03-23T01:57:29;14.70;;;3.22;;
37647;SDS011;23490;53.656;10.076;2024-03-23T01:59:54;19.25;;;4.28;;
37647;SDS011;23490;53.656;10.076;2024-03-23T02:02:20;15.70;;;3.55;;
37647;SDS011;23490;53.656;10.076;2024-03-23T02:04:45;17.75;;;3.83;;
37647;SDS011;23490;53.656;10.076;2024-03-23T02:07:10;12.30;;;3.55;;
37647;SDS011;23490;53.656;10.076;2024-03-23T02:09:36;13.13;;;3.03;;
37647;SDS011;23490;53.656;10.076;2024-03-23T02:12:04;12.88;;;3.08;;
37647;SDS011;23490;53.656;10.076;2024-03-23T02:14:29;15.00;;;4.40;;
37647;SDS011;23490;53.656;10.076;2024-03-23T02:16:54;18.15;;;4.60;;
37647;SDS011;23490;53.656;10.076;2024-03-23T02:19:20;12.18;;;3.42;;
37647;SDS011;23490;53.656;10.076;2024-03-23T02:21:45;18.23;;;4.15;;
37647;SDS011;23490;53.656;10.076;2024-03-23T02:24:12;19.15;;;3.97;;
37647;SDS011;23490;53.656;10.076;2024-03-23T02:26:37;23.00;;;5.28;;
37647;SDS011;23490;53.656;10.076;2024-03-23T02:29:02;19.55;;;3.63;;
37647;SDS011;23490;53.656;10.076;2024-03-23T02:31:30;21.05;;;3.67;;
37647;SDS011;23490;53.656;10.076;2024-03-23T02:33:55;23.13;;;4.03;;
37647;SDS011;23490;53.656;10.076;2024-03-23T02:36:20;16.60;;;3.60;;
37647;SDS011;23490;53.656;10.076;2024-03-23T02:38:46;15.27;;;4.13;;
37647;SDS011;23490;53.656;10.076;2024-03-23T02:41:11;11.27;;;3.25;;
37647;SDS011;23490;53.656;10.076;2024-03-23T02:43:37;18.95;;;3.10;;
37647;SDS011;23490;53.656;10.076;2024-03-23T02:46:02;20.63;;;2.63;;
37647;SDS011;23490;53.656;10.076;2024-03-23T02:48:29;17.13;;;4.35;;
37647;SDS011;23490;53.656;10.076;2024-03-23T02:50:54;15.77;;;3.65;;
37647;SDS011;23490;53.656;10.076;2024-03-23T02:53:19;15.85;;;3.97;;
37647;SDS011;23490;53.656;10.076;2024-03-23T02:55:45;21.05;;;2.65;;
37647;SDS011;23490;53.656;10.076;2024-03-23T02:58:10;13.32;;;3.20;;
37647;SDS011;23490;53.656;10.076;2024-03-23T03:00:35;20.20;;;4.78;;
37647;SDS011;23490;53.656;10.076;2024-03-23T03:03:01;16.50;;;3.85;;
37647;SDS011;23490;53.656;10.076;2024-03-23T03:05:26;14.07;;;3.30;;
37647;SDS011;23490;53.656;10.076;2024-03-23T03:07:51;16.23;;;3.42;;
37647;SDS011;23490;53.656;10.076;2024-03-23T03:10:16;23.33;;;3.70;;
37647;SDS011;23490;53.656;10.076;2024-03-23T03:12:41;12.07;;;2.75;;
37647;SDS011;23490;53.656;10.076;2024-03-23T03:15:07;20.70;;;3.38;;
37647;SDS011;23490;53.656;10.076;2024-03-23T03:17:34;14.27;;;3.97;;
37647;SDS011;23490;53.656;10.076;2024-03-23T03:19:59;15.80;;;3.45;;
37647;SDS011;23490;53.656;10.076;2024-03-23T03:22:24;13.35;;;3.42;;
37647;SDS011;23490;53.656;10.076;2024-03-23T03:24:50;20.00;;;4.13;;
37647;SDS011;23490;53.656;10.076;2024-03-23T03:27:15;14.93;;;3.90;;
37647;SDS011;23490;53.656;10.076;2024-03-23T03:29:40;17.40;;;3.45;;
37647;SDS011;23490;53.656;10.076;2024-03-23T03:32:05;17.35;;;3.35;;
37647;SDS011;23490;53.656;10.076;2024-03-23T03:34:31;16.23;;;2.80;;
37647;SDS011;23490;53.656;10.076;2024-03-23T03:36:57;18.52;;;4.55;;
37647;SDS011;23490;53.656;10.076;2024-03-23T03:39:23;12.00;;;3.42;;
37647;SDS011;23490;53.656;10.076;2024-03-23T03:41:48;13.45;;;3.03;;
37647;SDS011;23490;53.656;10.076;2024-03-23T03:44:14;17.92;;;3.03;;
37647;SDS011;23490;53.656;10.076;2024-03-23T03:46:39;13.95;;;4.43;;
37647;SDS011;23490;53.656;10.076;2024-03-23T03:49:04;14.32;;;2.95;;
37647;SDS011;23490;53.656;10.076;2024-03-23T03:51:30;10.50;;;2.35;;
37647;SDS011;23490;53.656;10.076;2024-03-23T03:53:55;7.43;;;3.55;;
37647;SDS011;23490;53.656;10.076;2024-03-23T03:56:21;13.45;;;4.35;;
37647;SDS011;23490;53.656;10.076;2024-03-23T03:58:47;11.65;;;3.58;;
37647;SDS011;23490;53.656;10.076;2024-03-23T04:01:12;9.05;;;2.80;;
37647;SDS011;23490;53.656;10.076;2024-03-23T04:03:38;12.23;;;3.83;;
37647;SDS011;23490;53.656;10.076;2024-03-23T04:06:08;12.07;;;3.72;;
37647;SDS011;23490;53.656;10.076;2024-03-23T04:08:34;13.85;;;3.45;;
37647;SDS011;23490;53.656;10.076;2024-03-23T04:10:59;10.95;;;2.65;;
37647;SDS011;23490;53.656;10.076;2024-03-23T04:13:24;14.98;;;4.00;;
37647;SDS011;23490;53.656;10.076;2024-03-23T04:15:53;13.60;;;3.88;;
37647;SDS011;23490;53.656;10.076;2024-03-23T04:18:18;18.25;;;4.15;;
37647;SDS011;23490;53.656;10.076;2024-03-23T04:20:44;15.27;;;3.03;;
37647;SDS011;23490;53.656;10.076;2024-03-23T04:23:09;15.30;;;2.72;;
37647;SDS011;23490;53.656;10.076;2024-03-23T04:25:34;11.07;;;3.72;;
37647;SDS011;23490;53.656;10.076;2024-03-23T04:27:59;16.73;;;2.83;;
37647;SDS011;23490;53.656;10.076;2024-03-23T04:30:24;12.73;;;3.55;;
37647;SDS011;23490;53.656;10.076;2024-03-23T04:32:53;9.68;;;2.83;;
37647;SDS011;23490;53.656;10.076;2024-03-23T04:35:18;11.30;;;3.47;;
37647;SDS011;23490;53.656;10.076;2024-03-23T04:37:45;14.23;;;2.80;;
37647;SDS011;23490;53.656;10.076;2024-03-23T04:40:10;10.27;;;2.85;;
37647;SDS011;23490;53.656;10.076;2024-03-23T04:42:36;7.00;;;2.42;;
37647;SDS011;23490;53.656;10.076;2024-03-23T04:45:03;13.27;;;2.55;;
37647;SDS011;23490;53.656;10.076;2024-03-23T04:47:28;14.48;;;4.28;;
37647;SDS011;23490;53.656;10.076;2024-03-23T04:49:53;13.15;;;3.47;;
37647;SDS011;23490;53.656;10.076;2024-03-23T04:52:19;11.82;;;2.85;;
37647;SDS011;23490;53.656;10.076;2024-03-23T04:54:44;13.45;;;3.42;;
37647;SDS011;23490;53.656;10.076;2024-03-23T04:57:10;11.63;;;3.00;;
37647;SDS011;23490;53.656;10.076;2024-03-23T04:59:36;19.40;;;4.28;;
37647;SDS011;23490;53.656;10.076;2024-03-23T05:02:01;19.27;;;4.60;;
37647;SDS011;23490;53.656;10.076;2024-03-23T05:04:27;12.48;;;3.58;;
37647;SDS011;23490;53.656;10.076;2024-03-23T05:06:53;14.23;;;3.13;;
37647;SDS011;23490;53.656;10.076;2024-03-23T05:09:18;15.48;;;3.67;;
37647;SDS011;23490;53.656;10.076;2024-03-23T05:11:45;9.70;;;3.10;;
37647;SDS011;23490;53.656;10.076;2024-03-23T05:14:11;15.50;;;3.60;;
37647;SDS011;23490;53.656;10.076;2024-03-23T05:16:37;13.80;;;3.17;;
37647;SDS011;23490;53.656;10.076;2024-03-23T05:19:02;7.80;;;2.40;;
37647;SDS011;23490;53.656;10.076;2024-03-23T05:21:27;10.15;;;2.92;;
37647;SDS011;23490;53.656;10.076;2024-03-23T05:23:55;13.20;;;2.78;;
37647;SDS011;23490;53.656;10.076;2024-03-23T05:26:21;10.13;;;3.65;;
37647;SDS011;23490;53.656;10.076;2024-03-23T05:28:47;7.57;;;2.40;;
37647;SDS011;23490;53.656;10.076;2024-03-23T05:31:12;13.55;;;2.50;;
37647;SDS011;23490;53.656;10.076;2024-03-23T05:33:37;16.52;;;4.45;;
37647;SDS011;23490;53.656;10.076;2024-03-23T05:36:03;14.98;;;3.20;;
37647;SDS011;23490;53.656;10.076;2024-03-23T05:38:28;11.25;;;4.15;;
37647;SDS011;23490;53.656;10.076;2024-03-23T05:40:57;17.00;;;3.15;;
37647;SDS011;23490;53.656;10.076;2024-03-23T05:43:23;14.32;;;2.75;;
37647;SDS011;23490;53.656;10.076;2024-03-23T05:45:59;13.52;;;3.92;;
37647;SDS011;23490;53.656;10.076;2024-03-23T05:48:27;11.27;;;3.03;;
37647;SDS011;23490;53.656;10.076;2024-03-23T05:50:53;11.88;;;2.92;;
37647;SDS011;23490;53.656;10.076;2024-03-23T05:53:18;15.05;;;3.33;;
37647;SDS011;23490;53.656;10.076;2024-03-23T05:55:47;23.75;;;4.13;;
37647;SDS011;23490;53.656;10.076;2024-03-23T05:58:17;18.25;;;4.00;;
37647;SDS011;23490;53.656;10.076;2024-03-23T06:00:43;10.00;;;2.92;;
37647;SDS011;23490;53.656;10.076;2024-03-23T06:03:09;12.43;;;2.92;;
37647;SDS011;23490;53.656;10.076;2024-03-23T06:05:35;15.45;;;3.70;;
37647;SDS011;23490;53.656;10.076;2024-03-23T06:08:00;10.18;;;3.03;;
37647;SDS011;23490;53.656;10.076;2024-03-23T06:10:25;13.95;;;3.72;;
37647;SDS011;23490;53.656;10.076;2024-03-23T06:12:50;14.23;;;2.88;;
37647;SDS011;23490;53.656;10.076;2024-03-23T06:15:18;17.65;;;3.95;;
37647;SDS011;23490;53.656;10.076;2024-03-23T06:17:43;15.02;;;3.70;;
37647;SDS011;23490;53.656;10.076;2024-03-23T06:20:09;13.45;;;3.78;;
37647;SDS011;23490;53.656;10.076;2024-03-23T06:22:35;12.57;;;4.22;;
37647;SDS011;23490;53.656;10.076;2024-03-23T06:25:00;16.70;;;2.92;;
37647;SDS011;23490;53.656;10.076;2024-03-23T06:27:25;16.55;;;4.68;;
37647;SDS011;23490;53.656;10.076;2024-03-23T06:29:51;18.30;;;3.60;;
37647;SDS011;23490;53.656;10.076;2024-03-23T06:32:16;15.15;;;3.65;;
37647;SDS011;23490;53.656;10.076;2024-03-23T06:34:42;15.20;;;3.35;;
37647;SDS011;23490;53.656;10.076;2024-03-23T06:37:07;14.20;;;2.80;;
37647;SDS011;23490;53.656;10.076;2024-03-23T06:39:34;12.82;;;3.00;;
37647;SDS011;23490;53.656;10.076;2024-03-23T06:42:00;18.85;;;2.90;;
37647;SDS011;23490;53.656;10.076;2024-03-23T06:44:25;11.75;;;3.03;;
37647;SDS011;23490;53.656;10.076;2024-03-23T06:46:50;15.02;;;4.35;;
37647;SDS011;23490;53.656;10.076;2024-03-23T06:49:15;13.77;;;4.28;;
37647;SDS011;23490;53.656;10.076;2024-03-23T06:51:41;19.00;;;4.43;;
37647;SDS011;23490;53.656;10.076;2024-03-23T06:54:06;14.15;;;3.78;;
37647;SDS011;23490;53.656;10.076;2024-03-23T06:56:31;9.57;;;2.78;;
37647;SDS011;23490;53.656;10.076;2024-03-23T06:58:57;15.57;;;3.08;;
37647;SDS011;23490;53.656;10.076;2024-03-23T07:01:22;13.60;;;3.30;;
37647;SDS011;23490;53.656;10.076;2024-03-23T07:03:47;14.27;;;2.50;;
37647;SDS011;23490;53.656;10.076;2024-03-23T07:06:13;18.23;;;3.83;;
37647;SDS011;23490;53.656;10.076;2024-03-23T07:08:38;15.15;;;3.50;;
37647;SDS011;23490;53.656;10.076;2024-03-23T07:11:03;15.68;;;3.97;;
37647;SDS011;23490;53.656;10.076;2024-03-23T07:13:30;15.32;;;3.10;;
37647;SDS011;23490;53.656;10.076;2024-03-23T07:15:55;23.20;;;3.35;;
37647;SDS011;23490;53.656;10.076;2024-03-23T07:18:21;15.68;;;3.45;;
37647;SDS011;23490;53.656;10.076;2024-03-23T07:20:53;22.15;;;3.60;;
37647;SDS011;23490;53.656;10.076;2024-03-23T07:23:18;15.88;;;2.85;;
37647;SDS011;23490;53.656;10.076;2024-03-23T07:25:44;19.95;;;3.78;;
37647;SDS011;23490;53.656;10.076;2024-03-23T07:28:09;17.92;;;3.83;;
37647;SDS011;23490;53.656;10.076;2024-03-23T07:30:35;15.57;;;4.05;;
37647;SDS011;23490;53.656;10.076;2024-03-23T07:33:00;11.57;;;2.97;;
37647;SDS011;23490;53.656;10.076;2024-03-23T07:35:25;23.17;;;3.78;;
37647;SDS011;23490;53.656;10.076;2024-03-23T07:37:52;12.43;;;2.58;;
37647;SDS011;23490;53.656;10.076;2024-03-23T07:40:17;17.95;;;3.83;;
37647;SDS011;23490;53.656;10.076;2024-03-23T07:42:42;9.82;;;3.30;;
37647;SDS011;23490;53.656;10.076;2024-03-23T07:45:07;17.15;;;3.42;;
37647;SDS011;23490;53.656;10.076;2024-03-23T07:47:34;12.35;;;3.55;;
37647;SDS011;23490;53.656;10.076;2024-03-23T07:49:59;15.00;;;4.47;;
37647;SDS011;23490;53.656;10.076;2024-03-23T07:52:27;16.70;;;4.00;;
37647;SDS011;23490;53.656;10.076;2024-03-23T07:54:53;15.95;;;4.18;;
37647;SDS011;23490;53.656;10.076;2024-03-23T07:57:18;10.52;;;2.70;;
37647;SDS011;23490;53.656;10.076;2024-03-23T07:59:43;13.48;;;3.58;;
37647;SDS011;23490;53.656;10.076;2024-03-23T08:02:08;11.57;;;3.17;;
37647;SDS011;23490;53.656;10.076;2024-03-23T08:04:33;15.25;;;3.13;;
37647;SDS011;23490;53.656;10.076;2024-03-23T08:06:59;17.63;;;3.92;;
37647;SDS011;23490;53.656;10.076;2024-03-23T08:09:24;15.35;;;2.85;;
37647;SDS011;23490;53.656;10.076;2024-03-23T08:11:49;10.05;;;2.15;;
37647;SDS011;23490;53.656;10.076;2024-03-23T08:14:14;14.00;;;3.00;;
37647;SDS011;23490;53.656;10.076;2024-03-23T08:16:39;10.38;;;2.00;;
37647;SDS011;23490;53.656;10.076;2024-03-23T08:19:06;27.10;;;3.58;;
37647;SDS011;23490;53.656;10.076;2024-03-23T08:21:33;6.95;;;2.55;;
37647;SDS011;23490;53.656;10.076;2024-03-23T08:23:58;12.93;;;2.50;;
37647;SDS011;23490;53.656;10.076;2024-03-23T08:26:24;11.63;;;2.80;;
37647;SDS011;23490;53.656;10.076;2024-03-23T08:28:49;15.98;;;3.13;;
37647;SDS011;23490;53.656;10.076;2024-03-23T08:31:14;15.30;;;3.42;;
37647;SDS011;23490;53.656;10.076;2024-03-23T08:33:40;18.85;;;2.20;;
37647;SDS011;23490;53.656;10.076;2024-03-23T08:36:07;8.40;;;2.17;;
37647;SDS011;23490;53.656;10.076;2024-03-23T08:38:33;11.35;;;2.17;;
37647;SDS011;23490;53.656;10.076;2024-03-23T08:40:59;7.35;;;2.08;;
37647;SDS011;23490;53.656;10.076;2024-03-23T08:43:25;14.90;;;2.90;;
37647;SDS011;23490;53.656;10.076;2024-03-23T08:45:50;8.32;;;1.80;;
37647;SDS011;23490;53.656;10.076;2024-03-23T08:48:16;9.73;;;2.42;;
37647;SDS011;23490;53.656;10.076;2024-03-23T08:50:41;10.13;;;2.95;;
37647;SDS011;23490;53.656;10.076;2024-03-23T08:53:06;7.07;;;1.92;;
37647;SDS011;23490;53.656;10.076;2024-03-23T08:55:32;12.07;;;2.95;;
37647;SDS011;23490;53.656;10.076;2024-03-23T08:57:57;10.75;;;2.80;;
37647;SDS011;23490;53.656;10.076;2024-03-23T09:00:22;7.68;;;2.28;;
37647;SDS011;23490;53.656;10.076;2024-03-23T09:02:48;10.73;;;2.20;;
37647;SDS011;23490;53.656;10.076;2024-03-23T09:05:13;10.27;;;2.28;;
37647;SDS011;23490;53.656;10.076;2024-03-23T09:07:39;10.57;;;2.13;;
37647;SDS011;23490;53.656;10.076;2024-03-23T09:10:04;7.20;;;2.15;;
37647;SDS011;23490;53.656;10.076;2024-03-23T09:12:30;9.75;;;2.67;;
37647;SDS011;23490;53.656;10.076;2024-03-23T09:14:55;12.60;;;1.80;;
37647;SDS011;23490;53.656;10.076;2024-03-23T09:17:20;6.05;;;1.70;;
37647;SDS011;23490;53.656;10.076;2024-03-23T09:19:45;7.65;;;1.85;;
37647;SDS011;23490;53.656;10.076;2024-03-23T09:22:11;9.75;;;2.30;;
37647;SDS011;23490;53.656;10.076;2024-03-23T09:24:36;7.82;;;1.85;;
37647;SDS011;23490;53.656;10.076;2024-03-23T09:27:01;6.70;;;1.75;;
37647;SDS011;23490;53.656;10.076;2024-03-23T09:29:28;7.32;;;1.67;;
37647;SDS011;23490;53.656;10.076;2024-03-23T09:31:53;9.18;;;1.90;;
37647;SDS011;23490;53.656;10.076;2024-03-23T09:34:18;9.35;;;1.75;;
37647;SDS011;23490;53.656;10.076;2024-03-23T09:36:46;7.75;;;2.30;;
37647;SDS011;23490;53.656;10.076;2024-03-23T09:39:11;10.98;;;1.73;;
37647;SDS011;23490;53.656;10.076;2024-03-23T09:41:38;7.20;;;1.65;;
37647;SDS011;23490;53.656;10.076;2024-03-23T09:44:04;10.23;;;2.00;;
37647;SDS011;23490;53.656;10.076;2024-03-23T09:46:30;9.23;;;1.55;;
37647;SDS011;23490;53.656;10.076;2024-03-23T09:48:59;9.77;;;1.85;;
37647;SDS011;23490;53.656;10.076;2024-03-23T09:51:24;10.07;;;2.13;;
37647;SDS011;23490;53.656;10.076;2024-03-23T09:53:50;8.98;;;2.20;;
37647;SDS011;23490;53.656;10.076;2024-03-23T09:56:15;7.07;;;1.42;;
37647;SDS011;23490;53.656;10.076;2024-03-23T09:58:42;11.20;;;2.35;;
37647;SDS011;23490;53.656;10.076;2024-03-23T10:01:07;13.27;;;2.30;;
37647;SDS011;23490;53.656;10.076;2024-03-23T10:03:41;8.48;;;2.03;;
37647;SDS011;23490;53.656;10.076;2024-03-23T10:06:06;7.25;;;1.45;;
37647;SDS011;23490;53.656;10.076;2024-03-23T10:08:32;5.60;;;1.48;;
37647;SDS011;23490;53.656;10.076;2024-03-23T10:10:58;7.65;;;1.65;;
37647;SDS011;23490;53.656;10.076;2024-03-23T10:13:37;6.15;;;1.52;;
37647;SDS011;23490;53.656;10.076;2024-03-23T10:16:06;9.98;;;2.17;;
37647;SDS011;23490;53.656;10.076;2024-03-23T10:18:31;7.97;;;1.40;;
37647;SDS011;23490;53.656;10.076;2024-03-23T10:21:06;10.85;;;2.10;;
37647;SDS011;23490;53.656;10.076;2024-03-23T10:23:35;6.53;;;1.00;;
37647;SDS011;23490;53.656;10.076;2024-03-23T10:26:14;14.30;;;3.55;;
37647;SDS011;23490;53.656;10.076;2024-03-23T10:28:52;6.60;;;1.45;;
37647;SDS011;23490;53.656;10.076;2024-03-23T10:31:17;6.72;;;1.58;;
37647;SDS011;23490;53.656;10.076;2024-03-23T10:33:48;9.32;;;1.58;;
37647;SDS011;23490;53.656;10.076;2024-03-23T10:36:14;7.05;;;2.05;;
37647;SDS011;23490;53.656;10.076;2024-03-23T10:38:40;6.18;;;1.75;;
37647;SDS011;23490;53.656;10.076;2024-03-23T10:41:05;3.88;;;1.52;;
37647;SDS011;23490;53.656;10.076;2024-03-23T10:43:31;4.90;;;1.60;;
37647;SDS011;23490;53.656;10.076;2024-03-23T10:45:58;5.38;;;1.27;;
37647;SDS011;23490;53.656;10.076;2024-03-23T10:48:23;5.63;;;1.55;;
37647;SDS011;23490;53.656;10.076;2024-03-23T10:50:48;5.95;;;1.27;;
37647;SDS011;23490;53.656;10.076;2024-03-23T10:53:13;6.57;;;1.25;;
37647;SDS011;23490;53.656;10.076;2024-03-23T10:55:40;6.00;;;0.85;;
37647;SDS011;23490;53.656;10.076;2024-03-23T10:58:06;6.90;;;1.35;;
37647;SDS011;23490;53.656;10.076;2024-03-23T11:00:32;4.78;;;1.08;;
37647;SDS011;23490;53.656;10.076;2024-03-23T11:02:57;5.75;;;1.20;;
37647;SDS011;23490;53.656;10.076;2024-03-23T11:07:49;3.27;;;1.10;;
37647;SDS011;23490;53.656;10.076;2024-03-23T11:10:24;5.43;;;1.48;;
37647;SDS011;23490;53.656;10.076;2024-03-23T11:12:50;8.65;;;1.40;;
37647;SDS011;23490;53.656;10.076;2024-03-23T11:15:15;5.55;;;1.13;;
37647;SDS011;23490;53.656;10.076;2024-03-23T11:17:40;5.28;;;1.38;;
37647;SDS011;23490;53.656;10.076;2024-03-23T11:20:06;3.17;;;0.90;;
37647;SDS011;23490;53.656;10.076;2024-03-23T11:25:16;3.97;;;1.55;;
37647;SDS011;23490;53.656;10.076;2024-03-23T11:27:42;8.02;;;1.55;;
37647;SDS011;23490;53.656;10.076;2024-03-23T11:30:09;3.75;;;1.17;;
37647;SDS011;23490;53.656;10.076;2024-03-23T11:32:35;5.32;;;1.27;;
37647;SDS011;23490;53.656;10.076;2024-03-23T11:35:00;3.75;;;1.13;;
37647;SDS011;23490;53.656;10.076;2024-03-23T11:37:25;6.78;;;0.98;;
37647;SDS011;23490;53.656;10.076;2024-03-23T11:39:51;6.72;;;1.25;;
37647;SDS011;23490;53.656;10.076;2024-03-23T11:42:17;3.65;;;0.80;;
37647;SDS011;23490;53.656;10.076;2024-03-23T11:44:42;5.82;;;1.52;;
37647;SDS011;23490;53.656;10.076;2024-03-23T11:47:07;3.20;;;0.70;;
37647;SDS011;23490;53.656;10.076;2024-03-23T11:49:33;5.57;;;0.95;;
37647;SDS011;23490;53.656;10.076;2024-03-23T11:51:58;4.18;;;1.20;;
37647;SDS011;23490;53.656;10.076;2024-03-23T11:54:24;5.65;;;1.30;;
37647;SDS011;23490;53.656;10.076;2024-03-23T11:56:59;5.30;;;1.52;;
37647;SDS011;23490;53.656;10.076;2024-03-23T11:59:31;4.13;;;0.88;;
37647;SDS011;23490;53.656;10.076;2024-03-23T12:01:56;5.53;;;1.90;;
37647;SDS011;23490;53.656;10.076;2024-03-23T12:04:28;2.85;;;0.70;;
37647;SDS011;23490;53.656;10.076;2024-03-23T12:09:34;1.58;;;0.50;;
37647;SDS011;23490;53.656;10.076;2024-03-23T12:12:05;3.20;;;1.00;;
37647;SDS011;23490;53.656;10.076;2024-03-23T12:14:30;1.90;;;0.30;;
37647;SDS011;23490;53.656;10.076;2024-03-23T12:17:06;1.98;;;0.55;;
37647;SDS011;23490;53.656;10.076;2024-03-23T12:19:31;5.95;;;0.60;;
37647;SDS011;23490;53.656;10.076;2024-03-23T12:21:57;2.30;;;0.52;;
37647;SDS011;23490;53.656;10.076;2024-03-23T12:24:22;0.45;;;0.20;;
37647;SDS011;23490;53.656;10.076;2024-03-23T12:26:47;3.10;;;0.40;;
37647;SDS011;23490;53.656;10.076;2024-03-23T12:29:15;1.63;;;0.57;;
37647;SDS011;23490;53.656;10.076;2024-03-23T12:31:40;2.35;;;0.60;;
37647;SDS011;23490;53.656;10.076;2024-03-23T12:34:06;3.45;;;0.60;;
37647;SDS011;23490;53.656;10.076;2024-03-23T12:36:31;1.02;;;0.40;;
37647;SDS011;23490;53.656;10.076;2024-03-23T12:38:56;3.13;;;0.55;;
37647;SDS011;23490;53.656;10.076;2024-03-23T12:41:21;7.35;;;1.35;;
37647;SDS011;23490;53.656;10.076;2024-03-23T12:43:48;3.25;;;1.02;;
37647;SDS011;23490;53.656;10.076;2024-03-23T12:46:14;2.33;;;0.57;;
37647;SDS011;23490;53.656;10.076;2024-03-23T12:48:39;1.38;;;0.60;;
37647;SDS011;23490;53.656;10.076;2024-03-23T12:51:04;1.40;;;0.25;;
37647;SDS011;23490;53.656;10.076;2024-03-23T12:53:30;2.15;;;0.40;;
37647;SDS011;23490;53.656;10.076;2024-03-23T12:55:55;1.08;;;0.43;;
37647;SDS011;23490;53.656;10.076;2024-03-23T12:58:22;0.52;;;0.20;;
37647;SDS011;23490;53.656;10.076;2024-03-23T13:00:47;0.35;;;0.10;;
37647;SDS011;23490;53.656;10.076;2024-03-23T13:03:13;1.48;;;0.57;;
37647;SDS011;23490;53.656;10.076;2024-03-23T13:05:38;2.20;;;0.20;;
37647;SDS011;23490;53.656;10.076;2024-03-23T13:08:03;1.85;;;0.47;;
37647;SDS011;23490;53.656;10.076;2024-03-23T13:10:29;0.88;;;0.38;;
37647;SDS011;23490;53.656;10.076;2024-03-23T13:12:54;0.60;;;0.30;;
37647;SDS011;23490;53.656;10.076;2024-03-23T13:15:19;0.40;;;0.10;;
37647;SDS011;23490;53.656;10.076;2024-03-23T13:17:45;0.32;;;0.20;;
37647;SDS011;23490;53.656;10.076;2024-03-23T13:20:11;1.65;;;0.40;;
37647;SDS011;23490;53.656;10.076;2024-03-23T13:22:39;0.60;;;0.20;;
37647;SDS011;23490;53.656;10.076;2024-03-23T13:25:04;2.22;;;0.40;;
37647;SDS011;23490;53.656;10.076;2024-03-23T13:27:33;3.15;;;0.98;;
37647;SDS011;23490;53.656;10.076;2024-03-23T13:29:58;3.58;;;0.60;;
37647;SDS011;23490;53.656;10.076;2024-03-23T13:32:25;1.52;;;0.50;;
37647;SDS011;23490;53.656;10.076;2024-03-23T13:34:50;2.08;;;0.60;;
37647;SDS011;23490;53.656;10.076;2024-03-23T13:37:16;3.42;;;0.50;;
37647;SDS011;23490;53.656;10.076;2024-03-23T13:39:41;2.10;;;0.70;;
37647;SDS011;23490;53.656;10.076;2024-03-23T13:42:07;1.65;;;0.57;;
37647;SDS011;23490;53.656;10.076;2024-03-23T13:44:34;1.75;;;0.63;;
37647;SDS011;23490;53.656;10.076;2024-03-23T13:46:59;0.38;;;0.20;;
37647;SDS011;23490;53.656;10.076;2024-03-23T13:49:28;1.33;;;0.60;;
37647;SDS011;23490;53.656;10.076;2024-03-23T13:51:54;2.25;;;0.65;;
37647;SDS011;23490;53.656;10.076;2024-03-23T13:54:19;2.80;;;0.35;;
37647;SDS011;23490;53.656;10.076;2024-03-23T13:56:45;1.05;;;0.40;;
37647;SDS011;23490;53.656;10.076;2024-03-23T13:59:10;1.30;;;0.40;;
37647;SDS011;23490;53.656;10.076;2024-03-23T14:01:37;1.85;;;0.40;;
37647;SDS011;23490;53.656;10.076;2024-03-23T14:04:02;1.65;;;0.55;;
37647;SDS011;23490;53.656;10.076;2024-03-23T14:06:27;1.15;;;0.30;;
37647;SDS011;23490;53.656;10.076;2024-03-23T14:08:52;1.55;;;0.40;;
37647;SDS011;23490;53.656;10.076;2024-03-23T14:11:18;3.80;;;0.43;;
37647;SDS011;23490;53.656;10.076;2024-03-23T14:13:43;4.65;;;0.75;;
37647;SDS011;23490;53.656;10.076;2024-03-23T14:16:09;4.03;;;0.70;;
37647;SDS011;23490;53.656;10.076;2024-03-23T14:18:34;2.72;;;0.75;;
37647;SDS011;23490;53.656;10.076;2024-03-23T14:21:00;1.67;;;0.60;;
37647;SDS011;23490;53.656;10.076;2024-03-23T14:23:26;2.50;;;0.70;;
37647;SDS011;23490;53.656;10.076;2024-03-23T14:25:55;5.32;;;0.88;;
37647;SDS011;23490;53.656;10.076;2024-03-23T14:28:24;3.05;;;0.90;;
37647;SDS011;23490;53.656;10.076;2024-03-23T14:30:49;3.53;;;0.98;;
37647;SDS011;23490;53.656;10.076;2024-03-23T14:33:15;5.93;;;0.80;;
37647;SDS011;23490;53.656;10.076;2024-03-23T14:35:41;3.60;;;1.20;;
37647;SDS011;23490;53.656;10.076;2024-03-23T14:38:06;5.28;;;1.25;;
37647;SDS011;23490;53.656;10.076;2024-03-23T14:40:32;2.85;;;0.88;;
37647;SDS011;23490;53.656;10.076;2024-03-23T14:42:58;7.30;;;1.20;;
37647;SDS011;23490;53.656;10.076;2024-03-23T14:45:23;4.07;;;0.90;;
37647;SDS011;23490;53.656;10.076;2024-03-23T14:47:49;6.60;;;0.85;;
37647;SDS011;23490;53.656;10.076;2024-03-23T14:50:14;2.80;;;0.95;;
37647;SDS011;23490;53.656;10.076;2024-03-23T14:52:44;5.00;;;0.70;;
37647;SDS011;23490;53.656;10.076;2024-03-23T14:55:10;3.47;;;0.80;;
37647;SDS011;23490;53.656;10.076;2024-03-23T14:57:36;6.97;;;1.67;;
37647;SDS011;23490;53.656;10.076;2024-03-23T15:00:01;5.65;;;1.13;;
37647;SDS011;23490;53.656;10.076;2024-03-23T15:02:30;4.75;;;1.00;;
37647;SDS011;23490;53.656;10.076;2024-03-23T15:04:56;2.75;;;0.65;;
37647;SDS011;23490;53.656;10.076;2024-03-23T15:07:22;7.00;;;1.50;;
37647;SDS011;23490;53.656;10.076;2024-03-23T15:09:47;1.73;;;0.90;;
37647;SDS011;23490;53.656;10.076;2024-03-23T15:12:12;2.70;;;0.63;;
37647;SDS011;23490;53.656;10.076;2024-03-23T15:14:38;5.18;;;1.10;;
37647;SDS011;23490;53.656;10.076;2024-03-23T15:17:03;2.38;;;0.68;;
37647;SDS011;23490;53.656;10.076;2024-03-23T15:19:32;4.32;;;0.50;;
37647;SDS011;23490;53.656;10.076;2024-03-23T15:21:57;1.35;;;0.52;;